Ag.nikolaos-ii — SV4090 — position and weather

sailwx.info

Track history (hours):
 
Tides and Currents Weather Stations Pressure Air Temp Water Temp Dewpoint Dewpoint Depression Visibility Wind Speed Wind Dir Waves Ship Positions

Ag.nikolaos-ii

Last reported at 2017-Oct-27 01:17 UTC. Time now 2017-Nov-23 07:48 UTC.
Position N 39°56' E 024°02'.
Warning: this ship's position is 27 days out of date.

Length 21 m; draft 2 m.

Type: Fishing. MMSI: 239044000.

Date/timePositionNaut miles runAvg speedWind from/ knotsBaromVisibWave heightAir tempDewpointWater temp
2017-Oct-27 01:17N 39°56' E 024°02'3 8.8
2017-Oct-27 00:54N 39°58' E 024°06'4 8.4
2017-Oct-27 00:22N 39°60' E 024°11'3 8.6
2017-Oct-27 00:00N 40°01' E 024°15'5 8.8
2017-Oct-26 23:29N 40°04' E 024°20'9 8.3
2017-Oct-26 22:27N 40°11' E 024°27'4 9.5
2017-Oct-26 22:00N 40°15' E 024°28'5 9.0
2017-Oct-26 21:30N 40°19' E 024°28'5 8.6
2017-Oct-26 20:58N 40°24' E 024°29'4 8.3
2017-Oct-26 20:28N 40°28' E 024°29'4 8.2
2017-Oct-26 20:00N 40°32' E 024°29'4 8.3
2017-Oct-26 19:30N 40°36' E 024°27'4 7.9
2017-Oct-26 19:00N 40°39' E 024°25'4 7.7
2017-Oct-26 18:30N 40°43' E 024°24'4 8.1
2017-Oct-26 18:00N 40°47' E 024°21'4 8.6
2017-Oct-26 17:30N 40°51' E 024°19'0 0.8
2017-Oct-26 17:00N 40°51' E 024°19'2 4.0
2017-Oct-26 16:30N 40°50' E 024°21'4 7.8
2017-Oct-26 15:58N 40°46' E 024°17'4 8.4
2017-Oct-26 15:30N 40°44' E 024°13'4 8.5
2017-Oct-26 15:00N 40°40' E 024°10'  
2017-Oct-22 23:14N 40°24' E 023°54'0 0.0
2017-Oct-22 22:54N 40°24' E 023°54'0 0.0
2017-Oct-22 22:21N 40°24' E 023°54'0 0.1
2017-Oct-22 21:56N 40°24' E 023°54'9 5.2
2017-Oct-22 20:13N 40°32' E 023°56'0 0.3
2017-Oct-22 19:56N 40°32' E 023°56'0 0.5
2017-Oct-22 19:30N 40°32' E 023°57'0 0.5
2017-Oct-22 18:38N 40°32' E 023°56'0 0.1
2017-Oct-22 18:27N 40°32' E 023°56'0 0.1
2017-Oct-22 17:48N 40°32' E 023°56'0 0.1
2017-Oct-22 16:37N 40°32' E 023°56'0 0.6
2017-Oct-22 16:17N 40°32' E 023°57'1 3.3
2017-Oct-22 15:53N 40°31' E 023°56'3 8.1
2017-Oct-22 15:27N 40°28' E 023°55'4 7.5
2017-Oct-22 14:55N 40°24' E 023°54'0 0.0
2017-Oct-22 14:30N 40°24' E 023°54'0 0.0
2017-Oct-22 13:53N 40°24' E 023°54'0 0.0
2017-Oct-22 13:22N 40°24' E 023°54'0 0.0
2017-Oct-22 12:54N 40°24' E 023°54'0 0.0
2017-Oct-22 12:30N 40°24' E 023°54'0 0.0
2017-Oct-22 12:00N 40°24' E 023°54'0 0.0
2017-Oct-22 11:30N 40°24' E 023°54'0 0.0
2017-Oct-22 11:00N 40°24' E 023°54'0 0.0
2017-Oct-22 10:20N 40°24' E 023°54'0 0.0
2017-Oct-22 10:00N 40°24' E 023°54'0 0.0
2017-Oct-22 09:30N 40°24' E 023°54'0 0.0
2017-Oct-22 08:58N 40°24' E 023°54'0 0.0
2017-Oct-22 08:30N 40°24' E 023°54'0 0.0
2017-Oct-22 08:00N 40°24' E 023°54'0 0.0
2017-Oct-22 07:28N 40°24' E 023°54'0 0.0
2017-Oct-22 07:00N 40°24' E 023°54'0 0.0
2017-Oct-22 06:30N 40°24' E 023°54'0 0.0
2017-Oct-22 05:53N 40°24' E 023°54'0 0.0
2017-Oct-22 05:24N 40°24' E 023°54'0 0.0
2017-Oct-22 04:45N 40°24' E 023°54'0 0.0
2017-Oct-22 04:30N 40°24' E 023°54'0 0.0
2017-Oct-22 03:35N 40°24' E 023°54'0 0.0
2017-Oct-22 03:30N 40°24' E 023°54'0 0.0
2017-Oct-22 02:59N 40°24' E 023°54'0 0.0
2017-Oct-22 01:24N 40°24' E 023°54'0 0.0
2017-Oct-22 00:33N 40°24' E 023°54'0 0.1
2017-Oct-22 00:30N 40°24' E 023°54'0 0.0
2017-Oct-21 23:22N 40°24' E 023°54'0 0.0
2017-Oct-21 22:56N 40°24' E 023°54'0 0.0
2017-Oct-21 22:30N 40°24' E 023°54'6 4.3
2017-Oct-21 21:10N 40°29' E 023°56'4 9.3
2017-Oct-21 20:46N 40°33' E 023°56'3 9.4
2017-Oct-21 20:29N 40°35' E 023°57'9 2.3
2017-Oct-21 16:22N 40°43' E 024°05'3 8.8
2017-Oct-21 16:00N 40°44' E 024°09'4 8.9
2017-Oct-21 15:30N 40°46' E 024°14'4 9.0
2017-Oct-21 15:00N 40°49' E 024°19'2 2.3
2017-Oct-21 14:00N 40°51' E 024°19'0 0.0
2017-Oct-21 13:30N 40°51' E 024°19'0 0.0
2017-Oct-21 13:00N 40°51' E 024°19'0 0.0
2017-Oct-21 12:30N 40°51' E 024°19'0 0.0
2017-Oct-21 12:00N 40°51' E 024°19'0 0.0
2017-Oct-21 11:30N 40°51' E 024°19'0 0.0
2017-Oct-21 11:00N 40°51' E 024°19'0 0.0
2017-Oct-21 10:30N 40°51' E 024°19'0 0.0
2017-Oct-21 10:00N 40°51' E 024°19'0 0.0
2017-Oct-21 09:30N 40°51' E 024°19'0 0.0
2017-Oct-21 09:00N 40°51' E 024°19'0 0.0
2017-Oct-21 08:30N 40°51' E 024°19'0 0.0
2017-Oct-21 08:00N 40°51' E 024°19'0 0.0
2017-Oct-21 07:30N 40°51' E 024°19'0 0.0
2017-Oct-21 07:00N 40°51' E 024°19'0 0.0
2017-Oct-21 06:30N 40°51' E 024°19'0 0.0
2017-Oct-21 06:00N 40°51' E 024°19'0 0.0
2017-Oct-21 05:30N 40°51' E 024°19'0 0.0
2017-Oct-21 05:00N 40°51' E 024°19'0 0.0
2017-Oct-21 04:30N 40°51' E 024°19'0 0.0
2017-Oct-21 04:00N 40°51' E 024°19'0 0.0
2017-Oct-21 03:30N 40°51' E 024°19'0 0.0
2017-Oct-21 03:00N 40°51' E 024°19'0 0.0
2017-Oct-21 02:30N 40°51' E 024°19'0 0.0
2017-Oct-21 02:00N 40°51' E 024°19'0 0.0
2017-Oct-21 01:30N 40°51' E 024°19'0 0.0
2017-Oct-21 01:00N 40°51' E 024°19'0 0.0
2017-Oct-21 00:30N 40°51' E 024°19'0 0.0
2017-Oct-21 00:00N 40°51' E 024°19'0 0.0
2017-Oct-20 23:30N 40°51' E 024°19'0 0.0
2017-Oct-20 23:00N 40°51' E 024°19'1 1.3
2017-Oct-20 22:30N 40°50' E 024°19'3 6.4
2017-Oct-20 22:00N 40°48' E 024°17'5 9.7
2017-Oct-20 21:30N 40°45' E 024°12'5 9.5
2017-Oct-20 20:58N 40°43' E 024°06'4 1.0
2017-Oct-20 17:21N 40°42' E 024°02'1 1.0
2017-Oct-20 16:41N 40°42' E 024°03'1 6.8
2017-Oct-20 16:30N 40°40' E 024°03'2 3.1
2017-Oct-20 16:00N 40°39' E 024°03'4 8.7
2017-Oct-20 15:30N 40°35' E 024°01'4 8.9
2017-Oct-20 15:00N 40°31' E 023°58'4 8.7
2017-Oct-20 14:30N 40°27' E 023°55'4 3.8
2017-Oct-20 13:30N 40°24' E 023°54'0 0.0
2017-Oct-20 13:00N 40°24' E 023°54'0 0.0
2017-Oct-20 12:30N 40°24' E 023°54'0 0.0
2017-Oct-20 12:00N 40°24' E 023°54'0 0.0
2017-Oct-20 11:30N 40°24' E 023°54'0 0.0
2017-Oct-20 11:00N 40°24' E 023°54'0 0.0
2017-Oct-20 10:30N 40°24' E 023°54'0 0.0
2017-Oct-20 10:00N 40°24' E 023°54'0 0.0
2017-Oct-20 09:30N 40°24' E 023°54'0 0.0
2017-Oct-20 09:00N 40°24' E 023°54'0 0.0
2017-Oct-20 08:30N 40°24' E 023°54'0 0.0
2017-Oct-20 08:00N 40°24' E 023°54'0 0.0
2017-Oct-20 07:30N 40°24' E 023°54'0 0.0
2017-Oct-20 07:00N 40°24' E 023°54'0 0.0
2017-Oct-20 06:30N 40°24' E 023°54'0 0.0
2017-Oct-20 06:00N 40°24' E 023°54'0 0.0
2017-Oct-20 03:46N 40°24' E 023°54'2 6.7
2017-Oct-20 03:30N 40°25' E 023°54'5 9.5
2017-Oct-20 03:00N 40°30' E 023°56'3 1.8
2017-Oct-20 01:09N 40°33' E 023°57'0 0.4
2017-Oct-20 00:54N 40°33' E 023°57'0 0.3
2017-Oct-20 00:23N 40°33' E 023°57'0 0.1
2017-Oct-19 23:05N 40°33' E 023°57'1 3.8
2017-Oct-19 22:53N 40°33' E 023°57'2 4.7
2017-Oct-19 22:21N 40°31' E 023°56'4 7.0
2017-Oct-19 21:49N 40°29' E 023°51'3 5.5
2017-Oct-19 21:18N 40°27' E 023°54'2 6.1
2017-Oct-19 21:00N 40°27' E 023°56'4 7.2
2017-Oct-19 20:30N 40°30' E 023°58'3 6.1
2017-Oct-19 20:00N 40°30' E 023°54'0 0.6
2017-Oct-19 19:30N 40°30' E 023°54'0 0.5
2017-Oct-19 18:58N 40°31' E 023°54'0 0.5
2017-Oct-19 18:27N 40°30' E 023°54'0 0.1
2017-Oct-19 17:40N 40°30' E 023°54'0 1.3
2017-Oct-19 17:30N 40°31' E 023°54'0 0.7
2017-Oct-19 17:00N 40°30' E 023°54'1 1.3
2017-Oct-19 16:30N 40°31' E 023°55'2 3.2
2017-Oct-19 16:00N 40°29' E 023°53'4 7.7
2017-Oct-19 15:30N 40°26' E 023°54'2 3.7
2017-Oct-19 15:00N 40°24' E 023°54'0 0.0
2017-Oct-19 14:30N 40°24' E 023°54'0 0.0
2017-Oct-19 13:56N 40°24' E 023°54'0 0.0
2017-Oct-19 13:30N 40°24' E 023°54'0 0.0
2017-Oct-19 13:00N 40°24' E 023°54'0 0.0
2017-Oct-19 12:30N 40°24' E 023°54'0 0.0
2017-Oct-19 12:00N 40°24' E 023°54'0 0.0
2017-Oct-19 11:30N 40°24' E 023°54'0 0.0
2017-Oct-19 11:00N 40°24' E 023°54'0 0.0
2017-Oct-19 10:30N 40°24' E 023°54'0 0.0
2017-Oct-19 10:00N 40°24' E 023°54'0 0.0
2017-Oct-19 09:30N 40°24' E 023°54'0 0.0
2017-Oct-19 08:59N 40°24' E 023°54'0 0.0
2017-Oct-19 08:30N 40°24' E 023°54'0 0.0
2017-Oct-19 08:00N 40°24' E 023°54'0 0.0
2017-Oct-19 07:30N 40°24' E 023°54'0 0.0
2017-Oct-19 07:00N 40°24' E 023°54'0 0.0
2017-Oct-19 06:08N 40°24' E 023°54'0 0.0
2017-Oct-19 06:00N 40°24' E 023°54'0 0.0
2017-Oct-19 05:30N 40°24' E 023°54'0 0.0
2017-Oct-19 05:00N 40°24' E 023°54'0 0.0
2017-Oct-19 04:30N 40°24' E 023°54'0 0.0
2017-Oct-19 04:00N 40°24' E 023°54'0 0.0
2017-Oct-19 03:30N 40°24' E 023°54'0 0.0
2017-Oct-19 03:00N 40°24' E 023°54'0 0.0
2017-Oct-19 02:30N 40°24' E 023°54'0 0.0
2017-Oct-19 02:00N 40°24' E 023°54'0 0.0
2017-Oct-19 01:27N 40°24' E 023°54'0 0.0
2017-Oct-18 23:29N 40°24' E 023°54'0 0.0
2017-Oct-18 23:00N 40°24' E 023°54'0 0.0
2017-Oct-18 22:30N 40°24' E 023°54'0 0.0
2017-Oct-18 21:58N 40°24' E 023°54'0 0.0
2017-Oct-18 21:24N 40°24' E 023°54'0 0.0
2017-Oct-18 20:58N 40°24' E 023°54'0 0.0
2017-Oct-18 20:29N 40°24' E 023°54'0 0.4
2017-Oct-18 19:46N 40°24' E 023°54'3 9.5
2017-Oct-18 19:27N 40°27' E 023°53'3 5.6
2017-Oct-18 18:58N 40°29' E 023°54'7 1.7
2017-Oct-18 14:50N 40°32' E 024°03'7 8.5
2017-Oct-18 14:00N 40°38' E 024°09'4 8.2
2017-Oct-18 13:30N 40°41' E 024°12'4 8.3
2017-Oct-18 13:00N 40°44' E 024°15'4 8.4
2017-Oct-18 12:30N 40°47' E 024°19'3 6.6
2017-Oct-18 12:00N 40°51' E 024°19'0 0.7
2017-Oct-18 11:30N 40°51' E 024°19'0 0.0
2017-Oct-18 11:00N 40°51' E 024°19'0 0.0
2017-Oct-18 10:30N 40°51' E 024°19'0 0.0
2017-Oct-18 10:00N 40°51' E 024°19'0 0.0
2017-Oct-18 09:30N 40°51' E 024°19'0 0.0
2017-Oct-18 09:00N 40°51' E 024°19'0 0.0
2017-Oct-18 08:30N 40°51' E 024°19'0 0.0
2017-Oct-18 08:00N 40°51' E 024°19'0 0.0
2017-Oct-18 07:30N 40°51' E 024°19'0 0.0
2017-Oct-18 07:00N 40°51' E 024°19'0 0.0
2017-Oct-18 06:30N 40°51' E 024°19'0 0.0
2017-Oct-18 06:00N 40°51' E 024°19'0 0.0
2017-Oct-18 05:30N 40°51' E 024°19'0 0.0
2017-Oct-18 05:00N 40°51' E 024°19'0 0.0
2017-Oct-18 04:30N 40°51' E 024°19'0 0.0
2017-Oct-18 04:00N 40°51' E 024°19'0 0.0
2017-Oct-18 03:30N 40°51' E 024°19'0 0.0
2017-Oct-18 03:00N 40°51' E 024°19'0 0.0
2017-Oct-18 02:30N 40°51' E 024°19'0 0.0
2017-Oct-18 02:00N 40°51' E 024°19'0 0.0
2017-Oct-18 01:30N 40°51' E 024°19'0 0.0
2017-Oct-18 01:00N 40°51' E 024°19'3 5.7
2017-Oct-18 00:30N 40°49' E 024°22'2 4.5
2017-Oct-18 00:00N 40°48' E 024°24'0 0.2
2017-Oct-17 23:30N 40°48' E 024°24'0 0.7
2017-Oct-17 23:00N 40°48' E 024°25'0 0.8
2017-Oct-17 22:30N 40°48' E 024°24'0 0.2
2017-Oct-17 22:00N 40°48' E 024°24'0 0.2
2017-Oct-17 21:30N 40°48' E 024°24'0 0.4
2017-Oct-17 21:00N 40°48' E 024°24'0 0.6
2017-Oct-17 20:30N 40°48' E 024°25'4 7.1
2017-Oct-17 20:00N 40°46' E 024°21'4 7.7
2017-Oct-17 19:30N 40°45' E 024°16'4 7.2
2017-Oct-17 19:00N 40°44' E 024°12'4 7.1
2017-Oct-17 18:30N 40°41' E 024°09'4 6.7
2017-Oct-17 17:59N 40°37' E 024°08'0 0.9
2017-Oct-17 17:30N 40°37' E 024°09'0 0.4
2017-Oct-17 17:00N 40°37' E 024°09'1 1.5
2017-Oct-17 16:30N 40°38' E 024°09'1 2.9
2017-Oct-17 16:00N 40°39' E 024°10'4 8.3
2017-Oct-17 15:30N 40°43' E 024°13'4 8.4
2017-Oct-17 15:00N 40°46' E 024°17'4 8.5
2017-Oct-17 14:30N 40°49' E 024°20'2 4.2
2017-Oct-17 14:00N 40°51' E 024°19'0 0.0
2017-Oct-17 13:30N 40°51' E 024°19'0 0.0
2017-Oct-17 13:00N 40°51' E 024°19'0 0.0
2017-Oct-17 12:30N 40°51' E 024°19'0 0.0
2017-Oct-17 12:00N 40°51' E 024°19'0 0.0
2017-Oct-17 11:30N 40°51' E 024°19'0 0.0
2017-Oct-17 11:00N 40°51' E 024°19'0 0.0
2017-Oct-17 10:30N 40°51' E 024°19'0 0.0
2017-Oct-17 10:00N 40°51' E 024°19'0 0.0
2017-Oct-17 09:30N 40°51' E 024°19'0 0.0
2017-Oct-17 09:00N 40°51' E 024°19'0 0.0
2017-Oct-17 08:30N 40°51' E 024°19'0 0.0
2017-Oct-17 08:00N 40°51' E 024°19'0 0.0
2017-Oct-17 07:30N 40°51' E 024°19'0 0.0
2017-Oct-17 07:00N 40°51' E 024°19'0 0.0
2017-Oct-17 06:30N 40°51' E 024°19'0 0.0
2017-Oct-17 06:00N 40°51' E 024°19'0 0.0
2017-Oct-17 05:30N 40°51' E 024°19'0 0.0
2017-Oct-17 05:00N 40°51' E 024°19'0 0.0
2017-Oct-17 04:30N 40°51' E 024°19'0 0.0
2017-Oct-17 04:00N 40°51' E 024°19'0 0.0
2017-Oct-17 03:30N 40°51' E 024°19'0 0.0
2017-Oct-17 03:00N 40°51' E 024°19'0 0.0
2017-Oct-17 02:30N 40°51' E 024°19'0 0.0
2017-Oct-17 02:00N 40°51' E 024°19'0 0.0
2017-Oct-17 01:30N 40°51' E 024°19'  
Track history (hours):
 
Tides and Currents Weather Stations Pressure Air Temp Water Temp Dewpoint Dewpoint Depression Visibility Wind Speed Wind Dir Waves Ship Positions

Ag.nikolaos-ii

Last reported at 2017-Oct-27 01:17 UTC. Time now 2017-Nov-23 07:49 UTC.
Position N 39°56' E 024°02'.
Warning: this ship's position is 27 days out of date.

Length 21 m; draft 2 m.

Type: Fishing. MMSI: 239044000.

Date/timePositionNaut miles runAvg speedWind from/ knotsBaromVisibWave heightAir tempDewpointWater temp
2017-Oct-27 01:17N 39°56' E 024°02'3 8.8
2017-Oct-27 00:54N 39°58' E 024°06'4 8.4
2017-Oct-27 00:22N 39°60' E 024°11'3 8.6
2017-Oct-27 00:00N 40°01' E 024°15'5 8.8
2017-Oct-26 23:29N 40°04' E 024°20'9 8.3
2017-Oct-26 22:27N 40°11' E 024°27'4 9.5
2017-Oct-26 22:00N 40°15' E 024°28'5 9.0
2017-Oct-26 21:30N 40°19' E 024°28'5 8.6
2017-Oct-26 20:58N 40°24' E 024°29'4 8.3
2017-Oct-26 20:28N 40°28' E 024°29'4 8.2
2017-Oct-26 20:00N 40°32' E 024°29'4 8.3
2017-Oct-26 19:30N 40°36' E 024°27'4 7.9
2017-Oct-26 19:00N 40°39' E 024°25'4 7.7
2017-Oct-26 18:30N 40°43' E 024°24'4 8.1
2017-Oct-26 18:00N 40°47' E 024°21'4 8.6
2017-Oct-26 17:30N 40°51' E 024°19'0 0.8
2017-Oct-26 17:00N 40°51' E 024°19'2 4.0
2017-Oct-26 16:30N 40°50' E 024°21'4 7.8
2017-Oct-26 15:58N 40°46' E 024°17'4 8.4
2017-Oct-26 15:30N 40°44' E 024°13'4 8.5
2017-Oct-26 15:00N 40°40' E 024°10'  
2017-Oct-22 23:14N 40°24' E 023°54'0 0.0
2017-Oct-22 22:54N 40°24' E 023°54'0 0.0
2017-Oct-22 22:21N 40°24' E 023°54'0 0.1
2017-Oct-22 21:56N 40°24' E 023°54'9 5.2
2017-Oct-22 20:13N 40°32' E 023°56'0 0.3
2017-Oct-22 19:56N 40°32' E 023°56'0 0.5
2017-Oct-22 19:30N 40°32' E 023°57'0 0.5
2017-Oct-22 18:38N 40°32' E 023°56'0 0.1
2017-Oct-22 18:27N 40°32' E 023°56'0 0.1
2017-Oct-22 17:48N 40°32' E 023°56'0 0.1
2017-Oct-22 16:37N 40°32' E 023°56'0 0.6
2017-Oct-22 16:17N 40°32' E 023°57'1 3.3
2017-Oct-22 15:53N 40°31' E 023°56'3 8.1
2017-Oct-22 15:27N 40°28' E 023°55'4 7.5
2017-Oct-22 14:55N 40°24' E 023°54'0 0.0
2017-Oct-22 14:30N 40°24' E 023°54'0 0.0
2017-Oct-22 13:53N 40°24' E 023°54'0 0.0
2017-Oct-22 13:22N 40°24' E 023°54'0 0.0
2017-Oct-22 12:54N 40°24' E 023°54'0 0.0
2017-Oct-22 12:30N 40°24' E 023°54'0 0.0
2017-Oct-22 12:00N 40°24' E 023°54'0 0.0
2017-Oct-22 11:30N 40°24' E 023°54'0 0.0
2017-Oct-22 11:00N 40°24' E 023°54'0 0.0
2017-Oct-22 10:20N 40°24' E 023°54'0 0.0
2017-Oct-22 10:00N 40°24' E 023°54'0 0.0
2017-Oct-22 09:30N 40°24' E 023°54'0 0.0
2017-Oct-22 08:58N 40°24' E 023°54'0 0.0
2017-Oct-22 08:30N 40°24' E 023°54'0 0.0
2017-Oct-22 08:00N 40°24' E 023°54'0 0.0
2017-Oct-22 07:28N 40°24' E 023°54'0 0.0
2017-Oct-22 07:00N 40°24' E 023°54'0 0.0
2017-Oct-22 06:30N 40°24' E 023°54'0 0.0
2017-Oct-22 05:53N 40°24' E 023°54'0 0.0
2017-Oct-22 05:24N 40°24' E 023°54'0 0.0
2017-Oct-22 04:45N 40°24' E 023°54'0 0.0
2017-Oct-22 04:30N 40°24' E 023°54'0 0.0
2017-Oct-22 03:35N 40°24' E 023°54'0 0.0
2017-Oct-22 03:30N 40°24' E 023°54'0 0.0
2017-Oct-22 02:59N 40°24' E 023°54'0 0.0
2017-Oct-22 01:24N 40°24' E 023°54'0 0.0
2017-Oct-22 00:33N 40°24' E 023°54'0 0.1
2017-Oct-22 00:30N 40°24' E 023°54'0 0.0
2017-Oct-21 23:22N 40°24' E 023°54'0 0.0
2017-Oct-21 22:56N 40°24' E 023°54'0 0.0
2017-Oct-21 22:30N 40°24' E 023°54'6 4.3
2017-Oct-21 21:10N 40°29' E 023°56'4 9.3
2017-Oct-21 20:46N 40°33' E 023°56'3 9.4
2017-Oct-21 20:29N 40°35' E 023°57'9 2.3
2017-Oct-21 16:22N 40°43' E 024°05'3 8.8
2017-Oct-21 16:00N 40°44' E 024°09'4 8.9
2017-Oct-21 15:30N 40°46' E 024°14'4 9.0
2017-Oct-21 15:00N 40°49' E 024°19'2 2.3
2017-Oct-21 14:00N 40°51' E 024°19'0 0.0
2017-Oct-21 13:30N 40°51' E 024°19'0 0.0
2017-Oct-21 13:00N 40°51' E 024°19'0 0.0
2017-Oct-21 12:30N 40°51' E 024°19'0 0.0
2017-Oct-21 12:00N 40°51' E 024°19'0 0.0
2017-Oct-21 11:30N 40°51' E 024°19'0 0.0
2017-Oct-21 11:00N 40°51' E 024°19'0 0.0
2017-Oct-21 10:30N 40°51' E 024°19'0 0.0
2017-Oct-21 10:00N 40°51' E 024°19'0 0.0
2017-Oct-21 09:30N 40°51' E 024°19'0 0.0
2017-Oct-21 09:00N 40°51' E 024°19'0 0.0
2017-Oct-21 08:30N 40°51' E 024°19'0 0.0
2017-Oct-21 08:00N 40°51' E 024°19'0 0.0
2017-Oct-21 07:30N 40°51' E 024°19'0 0.0
2017-Oct-21 07:00N 40°51' E 024°19'0 0.0
2017-Oct-21 06:30N 40°51' E 024°19'0 0.0
2017-Oct-21 06:00N 40°51' E 024°19'0 0.0
2017-Oct-21 05:30N 40°51' E 024°19'0 0.0
2017-Oct-21 05:00N 40°51' E 024°19'0 0.0
2017-Oct-21 04:30N 40°51' E 024°19'0 0.0
2017-Oct-21 04:00N 40°51' E 024°19'0 0.0
2017-Oct-21 03:30N 40°51' E 024°19'0 0.0
2017-Oct-21 03:00N 40°51' E 024°19'0 0.0
2017-Oct-21 02:30N 40°51' E 024°19'0 0.0
2017-Oct-21 02:00N 40°51' E 024°19'0 0.0
2017-Oct-21 01:30N 40°51' E 024°19'0 0.0
2017-Oct-21 01:00N 40°51' E 024°19'0 0.0
2017-Oct-21 00:30N 40°51' E 024°19'0 0.0
2017-Oct-21 00:00N 40°51' E 024°19'0 0.0
2017-Oct-20 23:30N 40°51' E 024°19'0 0.0
2017-Oct-20 23:00N 40°51' E 024°19'1 1.3
2017-Oct-20 22:30N 40°50' E 024°19'3 6.4
2017-Oct-20 22:00N 40°48' E 024°17'5 9.7
2017-Oct-20 21:30N 40°45' E 024°12'5 9.5
2017-Oct-20 20:58N 40°43' E 024°06'4 1.0
2017-Oct-20 17:21N 40°42' E 024°02'1 1.0
2017-Oct-20 16:41N 40°42' E 024°03'1 6.8
2017-Oct-20 16:30N 40°40' E 024°03'2 3.1
2017-Oct-20 16:00N 40°39' E 024°03'4 8.7
2017-Oct-20 15:30N 40°35' E 024°01'4 8.9
2017-Oct-20 15:00N 40°31' E 023°58'4 8.7
2017-Oct-20 14:30N 40°27' E 023°55'4 3.8
2017-Oct-20 13:30N 40°24' E 023°54'0 0.0
2017-Oct-20 13:00N 40°24' E 023°54'0 0.0
2017-Oct-20 12:30N 40°24' E 023°54'0 0.0
2017-Oct-20 12:00N 40°24' E 023°54'0 0.0
2017-Oct-20 11:30N 40°24' E 023°54'0 0.0
2017-Oct-20 11:00N 40°24' E 023°54'0 0.0
2017-Oct-20 10:30N 40°24' E 023°54'0 0.0
2017-Oct-20 10:00N 40°24' E 023°54'0 0.0
2017-Oct-20 09:30N 40°24' E 023°54'0 0.0
2017-Oct-20 09:00N 40°24' E 023°54'0 0.0
2017-Oct-20 08:30N 40°24' E 023°54'0 0.0
2017-Oct-20 08:00N 40°24' E 023°54'0 0.0
2017-Oct-20 07:30N 40°24' E 023°54'0 0.0
2017-Oct-20 07:00N 40°24' E 023°54'0 0.0
2017-Oct-20 06:30N 40°24' E 023°54'0 0.0
2017-Oct-20 06:00N 40°24' E 023°54'0 0.0
2017-Oct-20 03:46N 40°24' E 023°54'2 6.7
2017-Oct-20 03:30N 40°25' E 023°54'5 9.5
2017-Oct-20 03:00N 40°30' E 023°56'3 1.8
2017-Oct-20 01:09N 40°33' E 023°57'0 0.4
2017-Oct-20 00:54N 40°33' E 023°57'0 0.3
2017-Oct-20 00:23N 40°33' E 023°57'0 0.1
2017-Oct-19 23:05N 40°33' E 023°57'1 3.8
2017-Oct-19 22:53N 40°33' E 023°57'2 4.7
2017-Oct-19 22:21N 40°31' E 023°56'4 7.0
2017-Oct-19 21:49N 40°29' E 023°51'3 5.5
2017-Oct-19 21:18N 40°27' E 023°54'2 6.1
2017-Oct-19 21:00N 40°27' E 023°56'4 7.2
2017-Oct-19 20:30N 40°30' E 023°58'3 6.1
2017-Oct-19 20:00N 40°30' E 023°54'0 0.6
2017-Oct-19 19:30N 40°30' E 023°54'0 0.5
2017-Oct-19 18:58N 40°31' E 023°54'0 0.5
2017-Oct-19 18:27N 40°30' E 023°54'0 0.1
2017-Oct-19 17:40N 40°30' E 023°54'0 1.3
2017-Oct-19 17:30N 40°31' E 023°54'0 0.7
2017-Oct-19 17:00N 40°30' E 023°54'1 1.3
2017-Oct-19 16:30N 40°31' E 023°55'2 3.2
2017-Oct-19 16:00N 40°29' E 023°53'4 7.7
2017-Oct-19 15:30N 40°26' E 023°54'2 3.7
2017-Oct-19 15:00N 40°24' E 023°54'0 0.0
2017-Oct-19 14:30N 40°24' E 023°54'0 0.0
2017-Oct-19 13:56N 40°24' E 023°54'0 0.0
2017-Oct-19 13:30N 40°24' E 023°54'0 0.0
2017-Oct-19 13:00N 40°24' E 023°54'0 0.0
2017-Oct-19 12:30N 40°24' E 023°54'0 0.0
2017-Oct-19 12:00N 40°24' E 023°54'0 0.0
2017-Oct-19 11:30N 40°24' E 023°54'0 0.0
2017-Oct-19 11:00N 40°24' E 023°54'0 0.0
2017-Oct-19 10:30N 40°24' E 023°54'0 0.0
2017-Oct-19 10:00N 40°24' E 023°54'0 0.0
2017-Oct-19 09:30N 40°24' E 023°54'0 0.0
2017-Oct-19 08:59N 40°24' E 023°54'0 0.0
2017-Oct-19 08:30N 40°24' E 023°54'0 0.0
2017-Oct-19 08:00N 40°24' E 023°54'0 0.0
2017-Oct-19 07:30N 40°24' E 023°54'0 0.0
2017-Oct-19 07:00N 40°24' E 023°54'0 0.0
2017-Oct-19 06:08N 40°24' E 023°54'0 0.0
2017-Oct-19 06:00N 40°24' E 023°54'0 0.0
2017-Oct-19 05:30N 40°24' E 023°54'0 0.0
2017-Oct-19 05:00N 40°24' E 023°54'0 0.0
2017-Oct-19 04:30N 40°24' E 023°54'0 0.0
2017-Oct-19 04:00N 40°24' E 023°54'0 0.0
2017-Oct-19 03:30N 40°24' E 023°54'0 0.0
2017-Oct-19 03:00N 40°24' E 023°54'0 0.0
2017-Oct-19 02:30N 40°24' E 023°54'0 0.0
2017-Oct-19 02:00N 40°24' E 023°54'0 0.0
2017-Oct-19 01:27N 40°24' E 023°54'0 0.0
2017-Oct-18 23:29N 40°24' E 023°54'0 0.0
2017-Oct-18 23:00N 40°24' E 023°54'0 0.0
2017-Oct-18 22:30N 40°24' E 023°54'0 0.0
2017-Oct-18 21:58N 40°24' E 023°54'0 0.0
2017-Oct-18 21:24N 40°24' E 023°54'0 0.0
2017-Oct-18 20:58N 40°24' E 023°54'0 0.0
2017-Oct-18 20:29N 40°24' E 023°54'0 0.4
2017-Oct-18 19:46N 40°24' E 023°54'3 9.5
2017-Oct-18 19:27N 40°27' E 023°53'3 5.6
2017-Oct-18 18:58N 40°29' E 023°54'7 1.7
2017-Oct-18 14:50N 40°32' E 024°03'7 8.5
2017-Oct-18 14:00N 40°38' E 024°09'4 8.2
2017-Oct-18 13:30N 40°41' E 024°12'4 8.3
2017-Oct-18 13:00N 40°44' E 024°15'4 8.4
2017-Oct-18 12:30N 40°47' E 024°19'3 6.6
2017-Oct-18 12:00N 40°51' E 024°19'0 0.7
2017-Oct-18 11:30N 40°51' E 024°19'0 0.0
2017-Oct-18 11:00N 40°51' E 024°19'0 0.0
2017-Oct-18 10:30N 40°51' E 024°19'0 0.0
2017-Oct-18 10:00N 40°51' E 024°19'0 0.0
2017-Oct-18 09:30N 40°51' E 024°19'0 0.0
2017-Oct-18 09:00N 40°51' E 024°19'0 0.0
2017-Oct-18 08:30N 40°51' E 024°19'0 0.0
2017-Oct-18 08:00N 40°51' E 024°19'0 0.0
2017-Oct-18 07:30N 40°51' E 024°19'0 0.0
2017-Oct-18 07:00N 40°51' E 024°19'0 0.0
2017-Oct-18 06:30N 40°51' E 024°19'0 0.0
2017-Oct-18 06:00N 40°51' E 024°19'0 0.0
2017-Oct-18 05:30N 40°51' E 024°19'0 0.0
2017-Oct-18 05:00N 40°51' E 024°19'0 0.0
2017-Oct-18 04:30N 40°51' E 024°19'0 0.0
2017-Oct-18 04:00N 40°51' E 024°19'0 0.0
2017-Oct-18 03:30N 40°51' E 024°19'0 0.0
2017-Oct-18 03:00N 40°51' E 024°19'0 0.0
2017-Oct-18 02:30N 40°51' E 024°19'0 0.0
2017-Oct-18 02:00N 40°51' E 024°19'0 0.0
2017-Oct-18 01:30N 40°51' E 024°19'0 0.0
2017-Oct-18 01:00N 40°51' E 024°19'3 5.7
2017-Oct-18 00:30N 40°49' E 024°22'2 4.5
2017-Oct-18 00:00N 40°48' E 024°24'0 0.2
2017-Oct-17 23:30N 40°48' E 024°24'0 0.7
2017-Oct-17 23:00N 40°48' E 024°25'0 0.8
2017-Oct-17 22:30N 40°48' E 024°24'0 0.2
2017-Oct-17 22:00N 40°48' E 024°24'0 0.2
2017-Oct-17 21:30N 40°48' E 024°24'0 0.4
2017-Oct-17 21:00N 40°48' E 024°24'0 0.6
2017-Oct-17 20:30N 40°48' E 024°25'4 7.1
2017-Oct-17 20:00N 40°46' E 024°21'4 7.7
2017-Oct-17 19:30N 40°45' E 024°16'4 7.2
2017-Oct-17 19:00N 40°44' E 024°12'4 7.1
2017-Oct-17 18:30N 40°41' E 024°09'4 6.7
2017-Oct-17 17:59N 40°37' E 024°08'0 0.9
2017-Oct-17 17:30N 40°37' E 024°09'0 0.4
2017-Oct-17 17:00N 40°37' E 024°09'1 1.5
2017-Oct-17 16:30N 40°38' E 024°09'1 2.9
2017-Oct-17 16:00N 40°39' E 024°10'4 8.3
2017-Oct-17 15:30N 40°43' E 024°13'4 8.4
2017-Oct-17 15:00N 40°46' E 024°17'4 8.5
2017-Oct-17 14:30N 40°49' E 024°20'2 4.2
2017-Oct-17 14:00N 40°51' E 024°19'0 0.0
2017-Oct-17 13:30N 40°51' E 024°19'0 0.0
2017-Oct-17 13:00N 40°51' E 024°19'0 0.0
2017-Oct-17 12:30N 40°51' E 024°19'0 0.0
2017-Oct-17 12:00N 40°51' E 024°19'0 0.0
2017-Oct-17 11:30N 40°51' E 024°19'0 0.0
2017-Oct-17 11:00N 40°51' E 024°19'0 0.0
2017-Oct-17 10:30N 40°51' E 024°19'0 0.0
2017-Oct-17 10:00N 40°51' E 024°19'0 0.0
2017-Oct-17 09:30N 40°51' E 024°19'0 0.0
2017-Oct-17 09:00N 40°51' E 024°19'0 0.0
2017-Oct-17 08:30N 40°51' E 024°19'0 0.0
2017-Oct-17 08:00N 40°51' E 024°19'0 0.0
2017-Oct-17 07:30N 40°51' E 024°19'0 0.0
2017-Oct-17 07:00N 40°51' E 024°19'0 0.0
2017-Oct-17 06:30N 40°51' E 024°19'0 0.0
2017-Oct-17 06:00N 40°51' E 024°19'0 0.0
2017-Oct-17 05:30N 40°51' E 024°19'0 0.0
2017-Oct-17 05:00N 40°51' E 024°19'0 0.0
2017-Oct-17 04:30N 40°51' E 024°19'0 0.0
2017-Oct-17 04:00N 40°51' E 024°19'0 0.0
2017-Oct-17 03:30N 40°51' E 024°19'0 0.0
2017-Oct-17 03:00N 40°51' E 024°19'0 0.0
2017-Oct-17 02:30N 40°51' E 024°19'0 0.0
2017-Oct-17 02:00N 40°51' E 024°19'0 0.0
2017-Oct-17 01:30N 40°51' E 024°19'  

Dump ship's entire track history